Time;durP1;ratioP1;P1;durP2;ratioP2;P2;SDS_P1;SDS_P2;PMS_P1;PMS_P2;Temp;Humidity;BMP_temperature;BMP_pressure;BME280_temperature;BME280_humidity;BME280_pressure;Samples;Min_cycle;Max_cycle;Signal;HPM_P1;HPM_P2
2023/04/16 00:00:42;;;;;;;18.73;16.92;;;8.40;99.90;;;;;;6011859;23;20675;-65
2023/04/16 00:03:10;;;;;;;18.10;16.40;;;8.40;99.90;;;;;;6023812;23;20254;-65
2023/04/16 00:05:36;;;;;;;18.30;16.60;;;8.40;99.90;;;;;;6001059;23;20274;-65
2023/04/16 00:08:03;;;;;;;19.85;17.95;;;8.40;99.90;;;;;;6004918;23;20726;-65
2023/04/16 00:10:32;;;;;;;19.45;17.65;;;8.40;99.90;;;;;;6008797;23;20238;-65
2023/04/16 00:12:59;;;;;;;18.60;16.95;;;8.40;99.90;;;;;;6004094;23;20230;-65
2023/04/16 00:15:26;;;;;;;18.33;16.45;;;8.40;99.90;;;;;;5997988;23;20235;-65
2023/04/16 00:17:53;;;;;;;16.27;14.77;;;8.40;99.90;;;;;;6003561;23;20284;-65
2023/04/16 00:20:20;;;;;;;16.30;14.80;;;8.40;99.90;;;;;;6005332;23;20202;-65
2023/04/16 00:22:47;;;;;;;16.95;15.35;;;8.40;99.90;;;;;;6005995;23;20239;-65
2023/04/16 00:25:15;;;;;;;18.15;16.45;;;8.30;99.90;;;;;;6006473;23;20287;-65
2023/04/16 00:27:43;;;;;;;18.52;16.73;;;8.30;99.90;;;;;;5991306;23;20188;-66
2023/04/16 00:30:10;;;;;;;17.95;16.27;;;8.40;99.90;;;;;;5997430;23;20258;-66
2023/04/16 00:32:37;;;;;;;16.60;15.10;;;8.30;99.90;;;;;;5996286;23;20190;-65
2023/04/16 00:35:05;;;;;;;19.40;17.40;;;8.30;99.90;;;;;;5999240;23;20211;-65
2023/04/16 00:37:32;;;;;;;17.23;15.65;;;8.40;99.90;;;;;;6002695;23;20584;-65
2023/04/16 00:40:00;;;;;;;17.65;16.05;;;8.30;99.90;;;;;;6001405;23;20668;-65
2023/04/16 00:42:28;;;;;;;16.75;15.15;;;8.40;99.90;;;;;;6006207;23;20223;-63
2023/04/16 00:44:57;;;;;;;15.73;14.40;;;8.60;99.90;;;;;;6002817;23;20221;-63
2023/04/16 00:47:26;;;;;;;15.18;13.68;;;8.40;99.90;;;;;;6009659;23;20231;-63
2023/04/16 00:49:54;;;;;;;14.75;13.52;;;8.40;99.90;;;;;;6032993;23;20246;-66
2023/04/16 00:52:21;;;;;;;16.83;15.30;;;8.50;99.90;;;;;;6005256;23;20192;-65
2023/04/16 00:54:49;;;;;;;15.18;13.88;;;8.70;99.90;;;;;;6000857;23;20546;-65
2023/04/16 00:57:16;;;;;;;14.77;13.15;;;8.70;99.90;;;;;;6006396;23;20709;-65
2023/04/16 00:59:43;;;;;;;14.38;12.98;;;8.30;99.90;;;;;;6032426;23;20191;-65
2023/04/16 01:02:13;;;;;;;16.58;15.15;;;8.30;99.90;;;;;;6019852;23;20214;-65
2023/04/16 01:04:40;;;;;;;16.75;15.25;;;8.30;99.90;;;;;;6014657;23;20232;-65
2023/04/16 01:07:07;;;;;;;16.85;15.32;;;8.30;99.90;;;;;;6002193;23;20577;-66
2023/04/16 01:09:34;;;;;;;14.55;13.25;;;8.30;99.90;;;;;;6003251;23;20220;-65
2023/04/16 01:12:02;;;;;;;14.73;13.32;;;8.30;99.90;;;;;;6002035;23;20203;-65
2023/04/16 01:14:30;;;;;;;14.43;13.18;;;8.30;99.90;;;;;;6002625;23;20217;-65
2023/04/16 01:16:57;;;;;;;15.02;13.73;;;8.30;99.90;;;;;;5999433;23;20315;-65
2023/04/16 01:19:26;;;;;;;14.57;13.38;;;8.30;99.90;;;;;;5993341;23;20713;-66
2023/04/16 01:21:54;;;;;;;13.70;12.50;;;8.30;99.90;;;;;;6011745;23;20197;-66
2023/04/16 01:24:21;;;;;;;14.60;13.30;;;8.30;99.90;;;;;;5987612;23;20224;-65
2023/04/16 01:26:49;;;;;;;15.32;14.00;;;8.30;99.90;;;;;;6001515;23;20251;-65
2023/04/16 01:29:16;;;;;;;13.48;12.27;;;8.60;99.90;;;;;;6001777;23;20236;-65
2023/04/16 01:31:45;;;;;;;13.60;12.40;;;8.30;99.90;;;;;;6001360;23;20193;-66
2023/04/16 01:34:12;;;;;;;14.55;13.25;;;8.30;99.90;;;;;;5999122;23;20216;-66
2023/04/16 01:36:39;;;;;;;14.73;13.43;;;8.30;99.90;;;;;;5999065;23;20232;-65
2023/04/16 01:39:10;;;;;;;14.70;13.43;;;8.30;99.90;;;;;;5992578;23;20204;-65
2023/04/16 01:41:37;;;;;;;15.18;13.77;;;8.30;99.90;;;;;;5997640;23;20296;-65
2023/04/16 01:44:04;;;;;;;13.90;12.70;;;8.30;99.90;;;;;;6006892;23;20217;-65
2023/04/16 01:46:34;;;;;;;13.35;12.15;;;8.20;99.90;;;;;;6003794;23;20195;-65
2023/04/16 01:49:02;;;;;;;13.55;12.35;;;8.20;99.90;;;;;;6000166;23;20250;-65
2023/04/16 01:51:30;;;;;;;13.02;11.93;;;8.20;99.90;;;;;;6010718;23;20205;-65
2023/04/16 01:53:58;;;;;;;13.63;12.32;;;8.20;99.90;;;;;;5999540;23;20224;-65
2023/04/16 01:56:26;;;;;;;13.95;12.65;;;8.20;99.90;;;;;;6003575;23;20689;-65
2023/04/16 01:58:53;;;;;;;14.48;13.07;;;8.10;99.90;;;;;;5998174;23;20200;-65
2023/04/16 02:01:20;;;;;;;14.05;12.85;;;8.20;99.90;;;;;;6005545;23;20226;-66
2023/04/16 02:03:48;;;;;;;13.98;12.68;;;8.20;99.90;;;;;;6000206;23;20932;-65
2023/04/16 02:06:15;;;;;;;13.13;11.93;;;8.20;99.90;;;;;;6002686;23;20229;-66
2023/04/16 02:08:42;;;;;;;13.70;12.48;;;8.10;99.90;;;;;;5994625;23;20219;-66
2023/04/16 02:11:09;;;;;;;14.00;12.80;;;8.20;99.90;;;;;;5985184;23;20732;-63
2023/04/16 02:13:38;;;;;;;14.30;13.00;;;8.10;99.90;;;;;;6008012;23;20200;-63
2023/04/16 02:16:05;;;;;;;15.80;14.30;;;8.20;99.90;;;;;;5998463;23;20648;-62
2023/04/16 02:18:32;;;;;;;13.75;12.55;;;8.20;99.90;;;;;;6000733;23;20225;-63
2023/04/16 02:20:59;;;;;;;15.25;13.88;;;8.20;99.90;;;;;;6001968;23;20689;-63
2023/04/16 02:23:27;;;;;;;13.85;12.55;;;8.20;99.90;;;;;;6000540;23;20676;-63
2023/04/16 02:25:54;;;;;;;15.40;14.00;;;8.20;99.90;;;;;;6001570;23;20197;-63
2023/04/16 02:28:21;;;;;;;17.08;15.57;;;8.60;99.90;;;;;;6002514;23;20193;-63
2023/04/16 02:30:49;;;;;;;16.25;14.80;;;8.20;99.90;;;;;;6003258;23;20668;-63
2023/04/16 02:33:16;;;;;;;14.75;13.45;;;8.20;99.90;;;;;;6006365;23;20203;-65
2023/04/16 02:35:43;;;;;;;16.77;15.27;;;8.30;99.90;;;;;;6005069;23;20208;-65
2023/04/16 02:38:11;;;;;;;14.75;13.45;;;8.20;99.90;;;;;;6002724;23;20224;-65
2023/04/16 02:40:38;;;;;;;15.60;14.10;;;8.20;99.90;;;;;;6007246;23;20233;-65
2023/04/16 02:43:05;;;;;;;15.48;14.07;;;8.20;99.90;;;;;;6018739;23;20271;-65
2023/04/16 02:45:33;;;;;;;16.85;15.30;;;8.30;99.90;;;;;;6003005;23;20614;-65
2023/04/16 02:48:01;;;;;;;15.48;14.07;;;8.30;99.90;;;;;;6001355;23;20220;-65
2023/04/16 02:50:29;;;;;;;15.05;13.75;;;8.30;99.90;;;;;;6004936;23;20229;-65
2023/04/16 02:52:56;;;;;;;16.48;14.98;;;8.30;99.90;;;;;;6024259;23;20606;-65
2023/04/16 02:55:23;;;;;;;16.15;14.55;;;8.30;99.90;;;;;;6003128;23;20213;-65
2023/04/16 02:57:51;;;;;;;15.75;14.30;;;8.30;99.90;;;;;;6002039;23;20300;-65
2023/04/16 03:00:19;;;;;;;17.35;15.75;;;8.30;99.90;;;;;;6004778;23;20215;-65
2023/04/16 03:02:46;;;;;;;17.90;16.10;;;8.30;99.90;;;;;;6015917;23;20208;-65
2023/04/16 03:05:15;;;;;;;15.90;14.35;;;8.50;99.90;;;;;;6002304;23;20217;-65
2023/04/16 03:07:42;;;;;;;16.75;15.02;;;8.30;99.90;;;;;;6004699;23;20188;-65
2023/04/16 03:10:10;;;;;;;14.60;13.20;;;8.60;99.90;;;;;;6004177;23;20252;-65
2023/04/16 03:12:38;;;;;;;13.60;12.30;;;8.30;99.90;;;;;;6006563;23;20203;-65
2023/04/16 03:15:06;;;;;;;14.25;12.85;;;8.20;99.90;;;;;;6001209;23;20215;-65
2023/04/16 03:17:33;;;;;;;14.00;12.60;;;8.20;99.90;;;;;;6005215;23;20246;-64
2023/04/16 03:20:00;;;;;;;14.73;13.40;;;8.20;99.90;;;;;;6004129;23;20229;-64
2023/04/16 03:22:28;;;;;;;14.40;13.10;;;8.20;99.90;;;;;;6021117;23;20210;-65
2023/04/16 03:24:56;;;;;;;15.75;14.32;;;8.20;99.90;;;;;;6002835;23;20248;-64
2023/04/16 03:27:23;;;;;;;14.20;12.85;;;8.30;99.90;;;;;;5994745;23;20190;-64
2023/04/16 03:29:50;;;;;;;16.83;15.27;;;8.30;99.90;;;;;;6003568;23;20661;-64
2023/04/16 03:32:18;;;;;;;15.82;14.50;;;8.30;99.90;;;;;;5991138;23;20263;-67
2023/04/16 03:34:45;;;;;;;17.27;15.45;;;8.30;99.90;;;;;;5998806;23;20222;-65
2023/04/16 03:37:12;;;;;;;15.43;13.93;;;8.20;99.90;;;;;;6000706;23;20219;-65
2023/04/16 03:39:40;;;;;;;16.02;14.52;;;8.20;99.90;;;;;;5997429;23;20278;-64
2023/04/16 03:42:07;;;;;;;16.70;15.13;;;8.20;99.90;;;;;;5993076;23;20197;-64
2023/04/16 03:44:35;;;;;;;17.60;15.90;;;8.20;99.90;;;;;;6003088;23;20251;-65
2023/04/16 03:47:02;;;;;;;17.08;15.45;;;8.20;99.90;;;;;;6001167;23;20271;-64
2023/04/16 03:49:28;;;;;;;16.85;15.25;;;8.20;99.90;;;;;;6004789;23;20212;-65
2023/04/16 03:51:56;;;;;;;18.58;16.73;;;8.10;99.90;;;;;;6006719;23;21395;-66
2023/04/16 03:54:23;;;;;;;19.70;17.70;;;8.10;99.90;;;;;;6003110;23;20648;-65
2023/04/16 03:56:51;;;;;;;20.25;17.90;;;8.10;99.90;;;;;;6003168;23;20303;-67
2023/04/16 03:59:19;;;;;;;18.00;16.20;;;8.20;99.90;;;;;;5999928;23;20563;-64
2023/04/16 04:01:45;;;;;;;17.88;16.02;;;8.20;99.90;;;;;;6003209;23;20283;-78
2023/04/16 04:04:12;;;;;;;20.10;18.05;;;8.10;99.90;;;;;;5999799;23;20298;-75
2023/04/16 04:06:39;;;;;;;19.08;16.65;;;8.20;99.90;;;;;;5999792;23;20200;-66
2023/04/16 04:09:07;;;;;;;17.30;15.40;;;8.20;99.90;;;;;;6000735;23;20644;-70
2023/04/16 04:11:34;;;;;;;19.00;16.95;;;8.10;99.90;;;;;;5999734;23;20196;-67
2023/04/16 04:14:03;;;;;;;18.42;16.65;;;8.10;99.90;;;;;;5998557;23;20291;-64
2023/04/16 04:16:31;;;;;;;19.52;17.63;;;8.10;99.90;;;;;;5999028;23;20228;-65
2023/04/16 04:18:58;;;;;;;18.35;16.45;;;8.10;99.90;;;;;;6000666;23;20235;-63
2023/04/16 04:21:27;;;;;;;19.50;17.40;;;8.10;99.90;;;;;;5993528;23;20307;-64
2023/04/16 04:23:54;;;;;;;20.35;18.45;;;8.10;99.90;;;;;;6008099;23;20231;-64
2023/04/16 04:26:21;;;;;;;19.60;17.05;;;8.10;99.90;;;;;;6002333;23;20223;-64
2023/04/16 04:28:48;;;;;;;20.10;17.20;;;8.10;99.90;;;;;;6000124;23;20202;-64
2023/04/16 04:31:16;;;;;;;19.13;17.17;;;8.10;99.90;;;;;;5997149;23;20265;-64
2023/04/16 04:33:43;;;;;;;19.63;16.83;;;8.10;99.90;;;;;;6004912;23;20211;-64
2023/04/16 04:36:10;;;;;;;17.77;16.02;;;8.10;99.90;;;;;;6001379;23;20771;-64
2023/04/16 04:38:37;;;;;;;17.77;16.00;;;8.10;99.90;;;;;;6003304;23;20224;-64
2023/04/16 04:41:04;;;;;;;20.42;18.33;;;8.10;99.90;;;;;;5997944;23;20195;-65
2023/04/16 04:43:31;;;;;;;18.85;16.92;;;8.10;99.90;;;;;;6000337;23;20187;-63
2023/04/16 04:45:58;;;;;;;19.83;17.75;;;8.10;99.90;;;;;;6000301;23;20203;-64
2023/04/16 04:48:27;;;;;;;18.65;16.77;;;8.20;99.90;;;;;;5998799;23;20617;-65
2023/04/16 04:50:54;;;;;;;20.42;18.20;;;8.20;99.90;;;;;;6001295;23;20218;-64
2023/04/16 04:53:21;;;;;;;18.30;16.27;;;8.10;99.90;;;;;;5999035;23;20218;-63
2023/04/16 04:55:48;;;;;;;22.30;19.90;;;8.10;99.90;;;;;;6001858;23;20199;-65
2023/04/16 04:58:15;;;;;;;23.25;19.58;;;8.10;99.90;;;;;;5999471;23;20246;-66
2023/04/16 05:00:42;;;;;;;23.50;19.52;;;8.10;99.90;;;;;;5994886;23;20275;-79
2023/04/16 05:03:11;;;;;;;24.55;19.15;;;8.10;99.90;;;;;;6001518;23;20719;-75
2023/04/16 05:05:40;;;;;;;26.05;21.73;;;8.10;99.90;;;;;;5999906;23;20552;-64
2023/04/16 05:08:07;;;;;;;22.15;19.85;;;8.10;99.90;;;;;;6003109;23;20193;-64
2023/04/16 05:10:34;;;;;;;21.42;18.77;;;8.10;99.90;;;;;;6007166;23;20203;-64
2023/04/16 05:13:02;;;;;;;24.10;21.05;;;8.10;99.90;;;;;;6008833;23;20274;-64
2023/04/16 05:15:28;;;;;;;22.73;19.40;;;8.10;99.90;;;;;;6011109;23;20223;-65
2023/04/16 05:17:55;;;;;;;24.05;21.10;;;8.10;99.90;;;;;;5999901;23;20231;-64
2023/04/16 05:20:23;;;;;;;23.88;21.30;;;8.10;99.90;;;;;;6003247;23;21437;-64
2023/04/16 05:22:54;;;;;;;26.50;22.33;;;8.10;99.90;;;;;;6007466;23;20550;-64
2023/04/16 05:25:21;;;;;;;29.65;24.40;;;8.10;99.90;;;;;;6006187;23;20664;-64
2023/04/16 05:27:48;;;;;;;31.17;25.15;;;8.10;99.90;;;;;;6003054;23;20271;-64
2023/04/16 05:30:15;;;;;;;27.83;23.83;;;8.00;99.90;;;;;;6002652;23;20203;-64
2023/04/16 05:32:42;;;;;;;28.90;23.00;;;8.00;99.90;;;;;;6005302;23;20187;-64
2023/04/16 05:35:10;;;;;;;32.42;26.05;;;8.10;99.90;;;;;;6002628;23;20706;-64
2023/04/16 05:37:37;;;;;;;33.13;26.58;;;8.10;99.90;;;;;;6002663;23;20267;-64
2023/04/16 05:40:06;;;;;;;34.83;26.67;;;8.10;99.90;;;;;;6003124;23;20677;-65
2023/04/16 05:42:33;;;;;;;34.38;25.92;;;8.10;99.90;;;;;;6011743;23;20214;-64
2023/04/16 05:45:03;;;;;;;32.42;26.25;;;8.10;99.90;;;;;;6001640;23;20537;-64
2023/04/16 05:47:29;;;;;;;31.92;25.25;;;8.00;99.90;;;;;;6003619;23;20224;-64
2023/04/16 05:49:57;;;;;;;36.58;28.10;;;8.00;99.90;;;;;;6001752;23;20227;-64
2023/04/16 05:52:24;;;;;;;32.55;26.17;;;8.00;99.90;;;;;;6003687;23;20544;-65
2023/04/16 05:54:51;;;;;;;31.98;26.13;;;8.00;99.90;;;;;;6011004;23;20613;-64
2023/04/16 05:57:19;;;;;;;33.50;25.05;;;8.00;99.90;;;;;;6001539;23;20623;-64
2023/04/16 05:59:46;;;;;;;32.38;26.15;;;8.00;99.90;;;;;;5993649;23;20192;-64
2023/04/16 06:02:13;;;;;;;36.83;29.35;;;8.00;99.90;;;;;;5999829;23;20188;-65
2023/04/16 06:04:40;;;;;;;36.28;26.40;;;8.00;99.90;;;;;;5999081;23;20211;-64
2023/04/16 06:07:07;;;;;;;32.13;26.33;;;8.00;99.90;;;;;;5997836;23;20727;-65
2023/04/16 06:09:35;;;;;;;33.85;26.65;;;8.00;99.90;;;;;;6003616;23;20197;-64
2023/04/16 06:12:02;;;;;;;36.05;26.85;;;8.10;99.90;;;;;;6005126;23;20191;-64
2023/04/16 06:14:30;;;;;;;27.08;23.13;;;8.00;99.90;;;;;;6004125;23;20608;-65
2023/04/16 06:16:57;;;;;;;32.22;25.63;;;8.10;99.90;;;;;;6003433;23;20203;-64
2023/04/16 06:19:24;;;;;;;33.83;26.42;;;8.10;99.90;;;;;;6005352;23;20279;-64
2023/04/16 06:21:52;;;;;;;30.90;25.42;;;8.10;99.90;;;;;;5995425;23;20637;-64
2023/04/16 06:24:19;;;;;;;29.75;25.25;;;8.20;99.90;;;;;;5997301;23;20251;-65
2023/04/16 06:26:46;;;;;;;29.85;25.90;;;8.20;99.90;;;;;;5999584;23;20196;-65
2023/04/16 06:29:13;;;;;;;29.95;24.60;;;8.20;99.90;;;;;;6002854;23;20194;-65
2023/04/16 06:31:42;;;;;;;34.78;28.23;;;8.20;99.90;;;;;;6015492;23;20192;-64
2023/04/16 06:34:09;;;;;;;33.95;26.40;;;8.20;99.90;;;;;;6002159;23;20267;-64
2023/04/16 06:36:36;;;;;;;30.17;24.23;;;8.20;99.90;;;;;;5999678;23;20537;-64
2023/04/16 06:39:03;;;;;;;26.50;23.10;;;8.30;99.90;;;;;;6004949;23;20220;-64
2023/04/16 06:41:31;;;;;;;28.23;24.83;;;8.30;99.90;;;;;;6002887;23;20612;-64
2023/04/16 06:43:57;;;;;;;30.25;25.65;;;8.30;99.90;;;;;;5996827;23;20796;-64
2023/04/16 06:46:24;;;;;;;30.13;24.73;;;8.30;99.90;;;;;;6005096;23;20198;-64
2023/04/16 06:48:53;;;;;;;27.30;23.45;;;8.30;99.90;;;;;;5992521;23;20201;-65
2023/04/16 06:51:20;;;;;;;26.95;24.05;;;8.40;99.90;;;;;;6015401;23;20202;-64
2023/04/16 06:53:47;;;;;;;28.52;25.42;;;8.40;99.90;;;;;;6007245;23;20640;-65
2023/04/16 06:56:14;;;;;;;29.38;24.80;;;8.40;99.90;;;;;;6003501;23;20197;-65
2023/04/16 06:58:41;;;;;;;30.30;27.05;;;8.40;99.90;;;;;;6002357;23;20239;-65
2023/04/16 07:01:09;;;;;;;30.67;25.50;;;8.40;99.90;;;;;;5993945;23;20324;-64
2023/04/16 07:03:36;;;;;;;31.63;26.42;;;8.40;99.90;;;;;;6006789;23;20247;-65
2023/04/16 07:06:04;;;;;;;27.00;23.42;;;8.40;99.90;;;;;;6005045;23;20192;-64
2023/04/16 07:08:31;;;;;;;26.00;23.02;;;8.40;99.90;;;;;;6004818;23;20197;-65
2023/04/16 07:10:58;;;;;;;27.23;24.08;;;8.40;99.90;;;;;;6000495;23;20193;-64
2023/04/16 07:13:26;;;;;;;25.10;21.60;;;8.40;99.90;;;;;;6003720;23;20275;-65
2023/04/16 07:15:53;;;;;;;26.88;24.02;;;8.50;99.90;;;;;;6004399;23;20201;-65
2023/04/16 07:18:20;;;;;;;25.45;22.42;;;8.50;99.90;;;;;;5999208;23;20259;-64
2023/04/16 07:20:48;;;;;;;24.23;21.63;;;8.50;99.90;;;;;;6004460;23;20432;-64
2023/04/16 07:23:16;;;;;;;24.23;21.63;;;8.60;99.90;;;;;;6003397;23;20237;-64
2023/04/16 07:25:43;;;;;;;24.45;20.88;;;8.60;99.90;;;;;;6004158;23;20502;-64
2023/04/16 07:28:10;;;;;;;23.40;19.95;;;8.60;99.90;;;;;;6003845;23;20201;-65
2023/04/16 07:30:37;;;;;;;25.02;21.77;;;8.60;99.90;;;;;;6006051;23;20278;-64
2023/04/16 07:33:04;;;;;;;23.52;20.55;;;8.60;99.90;;;;;;6003752;23;20275;-65
2023/04/16 07:35:32;;;;;;;24.73;22.13;;;8.60;99.90;;;;;;5999429;23;20224;-65
2023/04/16 07:37:59;;;;;;;23.90;21.50;;;8.60;99.90;;;;;;6003026;23;20218;-65
2023/04/16 07:40:27;;;;;;;22.58;20.10;;;8.60;99.90;;;;;;6008695;23;20194;-65
2023/04/16 07:42:55;;;;;;;23.55;21.15;;;8.60;99.90;;;;;;6001868;23;20673;-64
2023/04/16 07:45:22;;;;;;;25.50;21.73;;;8.60;99.90;;;;;;6004697;23;20295;-65
2023/04/16 07:47:49;;;;;;;28.13;22.17;;;8.70;99.90;;;;;;6000995;23;20520;-65
2023/04/16 07:50:18;;;;;;;23.98;21.35;;;8.70;99.90;;;;;;5996971;23;20605;-64
2023/04/16 07:52:45;;;;;;;22.17;19.92;;;8.70;99.90;;;;;;5995774;23;20879;-65
2023/04/16 07:55:12;;;;;;;21.55;19.38;;;8.70;99.90;;;;;;6003360;23;20690;-65
2023/04/16 07:57:40;;;;;;;23.38;20.05;;;8.80;99.90;;;;;;6007037;23;20189;-64
2023/04/16 08:00:08;;;;;;;20.98;18.77;;;8.80;99.90;;;;;;6004485;23;20252;-65
2023/04/16 08:02:36;;;;;;;23.13;20.05;;;8.70;99.90;;;;;;6006706;23;20197;-65
2023/04/16 08:05:03;;;;;;;25.42;22.88;;;8.70;99.90;;;;;;6004676;23;20206;-64
2023/04/16 08:07:30;;;;;;;22.65;20.25;;;8.70;99.90;;;;;;6003700;23;20194;-65
2023/04/16 08:09:57;;;;;;;23.40;20.98;;;8.70;99.90;;;;;;6002778;23;20194;-65
2023/04/16 08:12:24;;;;;;;22.65;20.23;;;8.70;99.90;;;;;;6003072;23;20183;-64
2023/04/16 08:14:52;;;;;;;19.38;17.35;;;8.70;99.90;;;;;;5999871;23;20210;-65
2023/04/16 08:17:19;;;;;;;20.38;18.35;;;8.70;99.90;;;;;;5994444;23;20667;-64
2023/04/16 08:19:46;;;;;;;20.55;18.45;;;8.70;99.90;;;;;;5999460;23;20217;-65
2023/04/16 08:22:14;;;;;;;19.70;17.80;;;8.70;99.90;;;;;;5996112;23;20203;-64
2023/04/16 08:24:41;;;;;;;20.95;18.85;;;8.70;99.90;;;;;;6003212;23;20307;-64
2023/04/16 08:27:09;;;;;;;20.85;18.95;;;8.80;99.90;;;;;;6005043;23;20198;-65
2023/04/16 08:29:36;;;;;;;22.52;20.33;;;8.70;99.90;;;;;;6002018;23;20203;-64
2023/04/16 08:32:05;;;;;;;19.58;17.67;;;8.80;99.90;;;;;;6003922;23;20275;-64
2023/04/16 08:34:32;;;;;;;22.23;20.05;;;8.80;99.90;;;;;;6004522;23;20234;-64
2023/04/16 08:36:59;;;;;;;21.65;19.55;;;8.70;99.90;;;;;;6000036;23;20343;-65
2023/04/16 08:39:26;;;;;;;19.80;17.90;;;8.80;99.90;;;;;;6001056;23;20285;-64
2023/04/16 08:41:54;;;;;;;22.48;20.05;;;8.80;99.90;;;;;;6004723;23;20240;-64
2023/04/16 08:44:26;;;;;;;21.98;19.75;;;8.80;99.90;;;;;;6004191;23;20266;-64
2023/04/16 08:46:56;;;;;;;20.75;18.60;;;8.80;99.90;;;;;;6004707;23;20286;-64
2023/04/16 08:49:25;;;;;;;21.70;19.40;;;8.80;99.90;;;;;;6002470;23;20209;-64
2023/04/16 08:51:53;;;;;;;17.88;16.08;;;8.90;99.90;;;;;;5998656;23;20196;-65
2023/04/16 08:54:36;;;;;;;21.33;18.95;;;8.90;99.90;;;;;;6002055;23;20588;-64
2023/04/16 08:57:06;;;;;;;19.23;17.40;;;8.90;99.90;;;;;;5995364;23;20747;-65
2023/04/16 08:59:34;;;;;;;17.95;16.13;;;8.90;99.90;;;;;;6003374;23;20589;-64
2023/04/16 09:02:00;;;;;;;17.70;15.85;;;8.90;99.90;;;;;;6003359;23;20202;-65
2023/04/16 09:04:29;;;;;;;18.40;16.50;;;9.00;99.90;;;;;;6003085;23;20216;-65
2023/04/16 09:06:58;;;;;;;19.52;17.58;;;9.00;99.90;;;;;;5993778;23;21103;-65
2023/04/16 09:09:26;;;;;;;18.08;16.38;;;9.10;99.90;;;;;;6001224;23;20636;-64
2023/04/16 09:11:54;;;;;;;18.30;16.45;;;9.20;99.90;;;;;;6010863;23;20302;-65
2023/04/16 09:14:21;;;;;;;19.33;17.38;;;9.20;99.90;;;;;;6003976;23;20247;-64
2023/04/16 09:16:52;;;;;;;20.85;18.83;;;9.20;99.90;;;;;;6001445;23;20204;-65
2023/04/16 09:19:19;;;;;;;20.17;18.15;;;9.20;99.90;;;;;;6003123;23;20228;-65
2023/04/16 09:21:48;;;;;;;17.55;15.70;;;9.20;99.90;;;;;;6009547;23;20200;-64
2023/04/16 09:24:16;;;;;;;18.92;17.00;;;9.20;99.90;;;;;;6003591;23;20287;-65
2023/04/16 09:26:43;;;;;;;17.65;15.93;;;9.30;99.90;;;;;;6000933;23;20568;-65
2023/04/16 09:29:10;;;;;;;19.83;17.95;;;9.30;99.90;;;;;;6002319;23;20265;-65
2023/04/16 09:31:37;;;;;;;20.23;18.25;;;9.30;99.90;;;;;;6013061;23;20579;-64
2023/04/16 09:34:05;;;;;;;20.77;18.63;;;9.30;99.90;;;;;;6004196;23;20681;-64
2023/04/16 09:36:34;;;;;;;21.30;19.08;;;9.30;99.90;;;;;;5990846;23;20202;-65
2023/04/16 09:39:03;;;;;;;19.75;17.75;;;9.40;99.90;;;;;;6009687;23;20668;-65
2023/04/16 09:41:34;;;;;;;17.00;15.25;;;9.40;99.90;;;;;;6004027;23;20197;-65
2023/04/16 09:44:03;;;;;;;20.20;18.10;;;9.40;99.90;;;;;;5997190;23;20276;-65
2023/04/16 09:46:31;;;;;;;19.50;17.40;;;9.40;99.90;;;;;;6001478;23;20193;-64
2023/04/16 09:48:58;;;;;;;19.08;17.17;;;9.40;99.90;;;;;;5992196;23;20291;-64
2023/04/16 09:51:27;;;;;;;19.42;17.35;;;9.40;99.90;;;;;;6003667;23;20201;-64
2023/04/16 09:53:56;;;;;;;20.58;18.52;;;9.40;99.90;;;;;;6003275;23;20251;-64
2023/04/16 09:56:25;;;;;;;19.45;17.48;;;9.30;99.90;;;;;;6003724;23;20186;-65
2023/04/16 09:58:57;;;;;;;19.27;17.23;;;9.40;99.90;;;;;;6004793;23;20339;-64
2023/04/16 10:01:24;;;;;;;19.20;17.17;;;9.40;99.90;;;;;;6007222;23;20202;-65
2023/04/16 10:03:54;;;;;;;23.02;18.10;;;9.40;99.90;;;;;;5992885;23;20213;-64
2023/04/16 10:06:24;;;;;;;22.15;19.77;;;9.40;99.90;;;;;;5996575;23;20261;-64
2023/04/16 10:08:52;;;;;;;23.05;18.73;;;9.40;99.90;;;;;;6002062;23;20194;-64
2023/04/16 10:11:21;;;;;;;22.65;18.48;;;9.40;99.90;;;;;;6007300;23;20277;-64
2023/04/16 10:13:50;;;;;;;18.95;17.02;;;9.30;99.90;;;;;;6003818;23;20296;-64
2023/04/16 10:16:18;;;;;;;19.02;17.10;;;9.40;99.90;;;;;;6002701;23;20197;-64
2023/04/16 10:18:46;;;;;;;20.30;18.15;;;9.40;99.90;;;;;;6003086;23;20305;-64
2023/04/16 10:21:15;;;;;;;21.08;17.33;;;9.40;99.90;;;;;;5997149;23;20182;-65
2023/04/16 10:23:42;;;;;;;20.00;17.90;;;9.50;99.90;;;;;;6002107;23;20293;-65
2023/04/16 10:26:10;;;;;;;19.02;17.02;;;9.50;99.90;;;;;;6001415;23;20225;-64
2023/04/16 10:28:37;;;;;;;21.35;17.80;;;9.50;99.90;;;;;;6000621;23;20273;-65
2023/04/16 10:31:07;;;;;;;19.17;17.10;;;9.50;99.90;;;;;;6009730;23;20276;-64
2023/04/16 10:33:36;;;;;;;19.15;16.80;;;9.50;99.90;;;;;;6003483;23;20213;-64
2023/04/16 10:36:10;;;;;;;18.15;16.27;;;9.50;99.90;;;;;;5998372;23;20190;-65
2023/04/16 10:38:44;;;;;;;19.33;16.80;;;9.50;99.90;;;;;;6002772;23;20209;-64
2023/04/16 10:41:11;;;;;;;17.17;15.35;;;9.50;99.90;;;;;;6014194;23;20192;-64
2023/04/16 10:43:44;;;;;;;19.63;17.52;;;9.50;99.90;;;;;;6003847;23;20220;-65
2023/04/16 10:46:23;;;;;;;18.02;15.23;;;9.40;99.90;;;;;;6007676;23;20502;-65
2023/04/16 10:48:52;;;;;;;17.52;15.73;;;9.40;99.90;;;;;;5991363;23;20786;-64
2023/04/16 10:51:28;;;;;;;18.05;16.23;;;9.40;99.90;;;;;;6004291;23;20252;-64
2023/04/16 10:53:56;;;;;;;18.30;16.42;;;9.50;99.90;;;;;;6004839;23;20575;-65
2023/04/16 10:56:24;;;;;;;15.95;14.20;;;9.50;99.90;;;;;;6006274;23;20194;-64
2023/04/16 10:58:54;;;;;;;15.70;13.98;;;9.50;99.90;;;;;;5999010;23;20202;-64
2023/04/16 11:01:30;;;;;;;15.50;13.35;;;9.50;99.90;;;;;;6003842;23;20202;-65
2023/04/16 11:03:59;;;;;;;14.75;13.25;;;9.50;99.90;;;;;;5992849;23;20319;-65
2023/04/16 11:06:27;;;;;;;14.90;13.32;;;9.50;99.90;;;;;;6006528;23;20194;-65
2023/04/16 11:08:55;;;;;;;12.90;11.60;;;9.50;99.90;;;;;;6004907;23;20221;-65
2023/04/16 11:11:22;;;;;;;13.32;12.02;;;9.50;99.90;;;;;;6006192;23;20609;-64
2023/04/16 11:13:49;;;;;;;13.15;11.85;;;9.50;99.90;;;;;;6008602;23;20218;-64
2023/04/16 11:16:17;;;;;;;13.35;11.25;;;9.60;99.90;;;;;;6003276;23;20197;-64
2023/04/16 11:18:46;;;;;;;12.80;11.50;;;9.60;99.90;;;;;;6002973;23;20199;-64
2023/04/16 11:21:13;;;;;;;14.52;13.02;;;9.50;99.90;;;;;;5993464;23;20210;-64
2023/04/16 11:23:48;;;;;;;14.18;12.68;;;9.50;99.90;;;;;;6005336;23;20710;-64
2023/04/16 11:26:25;;;;;;;13.45;11.07;;;9.40;99.90;;;;;;6002378;23;20193;-64
2023/04/16 11:28:54;;;;;;;13.73;12.18;;;9.50;99.90;;;;;;6004627;23;20568;-64
2023/04/16 11:31:22;;;;;;;12.65;11.35;;;9.50;99.90;;;;;;6003586;23;20725;-64
2023/04/16 11:33:50;;;;;;;12.02;10.82;;;9.50;99.90;;;;;;6012280;23;20224;-64
2023/04/16 11:36:17;;;;;;;11.55;10.35;;;9.50;99.90;;;;;;6003911;23;20193;-65
2023/04/16 11:38:44;;;;;;;12.48;11.27;;;9.40;99.90;;;;;;6002803;23;20190;-65
2023/04/16 11:41:11;;;;;;;11.80;10.57;;;9.40;99.90;;;;;;6007718;23;20839;-65
2023/04/16 11:43:38;;;;;;;11.77;10.57;;;9.40;99.90;;;;;;6014365;23;20210;-65
2023/04/16 11:46:06;;;;;;;10.48;9.38;;;9.40;99.90;;;;;;6001915;23;20194;-64
2023/04/16 11:48:46;;;;;;;11.30;10.20;;;9.40;99.90;;;;;;6003893;23;20198;-64
2023/04/16 11:51:15;;;;;;;10.60;9.48;;;9.40;99.90;;;;;;6001002;23;20200;-65
2023/04/16 11:53:47;;;;;;;11.10;10.00;;;9.40;99.90;;;;;;6006166;23;20706;-64
2023/04/16 11:56:14;;;;;;;11.10;9.55;;;9.40;99.90;;;;;;6005093;23;20190;-64
2023/04/16 11:58:41;;;;;;;10.60;9.70;;;9.40;99.90;;;;;;5993472;23;20546;-64
2023/04/16 12:01:09;;;;;;;9.80;8.80;;;9.40;99.90;;;;;;6007127;23;20231;-64
2023/04/16 12:03:42;;;;;;;10.30;9.30;;;9.50;99.90;;;;;;6005063;23;20233;-64
2023/04/16 12:06:10;;;;;;;9.98;9.07;;;9.50;99.90;;;;;;6000814;23;20201;-64
2023/04/16 12:08:38;;;;;;;9.45;8.55;;;9.50;99.90;;;;;;6002822;23;20340;-65
2023/04/16 12:11:06;;;;;;;9.73;8.75;;;9.50;99.90;;;;;;6005025;23;20273;-65
2023/04/16 12:13:38;;;;;;;9.90;8.98;;;9.50;99.90;;;;;;6005299;23;20223;-64
2023/04/16 12:16:19;;;;;;;9.50;8.60;;;9.50;99.90;;;;;;6000851;23;20195;-65
2023/04/16 12:19:00;;;;;;;10.27;9.27;;;9.50;99.90;;;;;;6002832;23;20206;-65
2023/04/16 12:21:37;;;;;;;10.38;9.27;;;9.50;99.90;;;;;;5996443;23;20255;-64
2023/04/16 12:24:06;;;;;;;8.82;7.93;;;9.50;99.90;;;;;;5998294;23;20252;-64
2023/04/16 12:26:40;;;;;;;10.65;9.00;;;9.50;99.90;;;;;;6001921;23;20205;-64
2023/04/16 12:29:17;;;;;;;8.18;7.45;;;9.50;99.90;;;;;;6004841;23;20638;-65
2023/04/16 12:31:45;;;;;;;8.50;7.80;;;9.50;99.90;;;;;;6005174;23;20268;-65
2023/04/16 12:34:13;;;;;;;9.10;8.30;;;9.50;99.90;;;;;;6004756;23;20218;-64
2023/04/16 12:36:41;;;;;;;7.90;7.20;;;9.50;99.90;;;;;;6001924;23;20194;-65
2023/04/16 12:39:10;;;;;;;8.60;7.90;;;9.50;99.90;;;;;;6004809;23;20650;-65
2023/04/16 12:41:38;;;;;;;9.65;8.85;;;9.50;99.90;;;;;;6003907;23;20221;-64